Weather at Huldra Platform [CLOSED]

Public forecast

Using degrees Celsius for public forecast. Weather courtesy of forecast.io.

Closest aviation weather report (METAR) to Huldra Platform

Closest report is Oseberg A Platform, 22.5 nm (41.6 km) SSE.

2024/02/29 08:50 (retrieved 35 minutes ago)

ENOA 290850Z 22031KT 9999 FEW020 08/03 Q0987 W///S6

Closest aviation forecast (TAF) to Huldra Platform

Closest forecast is Oseberg A Platform, 22.5 nm (41.6 km) SSE.

2024/02/29 09:36 (retrieved 0 seconds ago)

TAF TAF ENOA 290800Z 2909/0109 20038KT 9999 SCT030 BECMG 0101/0103 20022KT